createdAt,value
2022-11-05T00:01:05.536Z,96931.16
2022-11-05T00:03:50.989Z,96919.72
2022-11-05T00:06:36.166Z,96927.03
2022-11-05T00:09:21.315Z,96924.72
2022-11-05T00:12:06.380Z,96915.34
2022-11-05T00:14:51.647Z,96916.59
2022-11-05T00:17:18.265Z,96920.72
2022-11-05T00:19:44.903Z,96919.63
2022-11-05T00:22:30.052Z,96925.41
2022-11-05T00:25:14.979Z,96929.78
2022-11-05T00:27:41.648Z,96937.50
2022-11-05T00:30:09.617Z,96944.41
2022-11-05T00:32:36.733Z,96957.25
2022-11-05T00:35:04.214Z,96964.84
2022-11-05T00:37:30.907Z,96968.41
2022-11-05T00:39:57.587Z,96983.00
2022-11-05T00:42:42.834Z,96980.09
2022-11-05T00:45:09.883Z,96987.81
2022-11-05T00:47:54.876Z,96985.06
2022-11-05T00:50:22.237Z,96986.59
2022-11-05T00:52:56.097Z,96978.19
2022-11-05T00:55:24.664Z,96963.47
2022-11-05T00:57:51.635Z,96969.25
2022-11-05T01:00:18.606Z,96976.66
2022-11-05T01:02:45.810Z,96982.72
2022-11-05T01:05:13.850Z,96999.13
2022-11-05T01:07:40.603Z,96997.59
2022-11-05T01:10:07.573Z,97000.22
2022-11-05T01:12:34.319Z,97009.88
2022-11-05T01:15:01.260Z,97014.16
2022-11-05T01:17:27.911Z,97008.91
2022-11-05T01:19:54.580Z,97000.78
2022-11-05T01:22:21.988Z,97012.19
2022-11-05T01:24:48.611Z,97010.16
2022-11-05T01:27:15.277Z,96996.38
2022-11-05T01:29:42.338Z,96999.69
2022-11-05T01:32:08.959Z,97003.13
2022-11-05T01:34:35.579Z,96995.97
2022-11-05T01:37:02.249Z,96991.44
2022-11-05T01:39:28.861Z,96999.53
2022-11-05T01:41:55.515Z,96992.66
2022-11-05T01:44:59.449Z,96998.72
2022-11-05T01:47:29.991Z,96997.75
2022-11-05T01:50:00.435Z,96994.84
2022-11-05T01:52:31.556Z,97003.81
2022-11-05T01:54:59.084Z,97006.31
2022-11-05T01:57:27.261Z,97006.97
2022-11-05T01:59:58.639Z,97009.47
2022-11-05T02:02:26.140Z,96997.31
2022-11-05T02:04:57.132Z,97003.53
2022-11-05T02:07:26.864Z,97006.44
2022-11-05T02:10:06.872Z,97007.38
2022-11-05T02:12:36.540Z,96994.59
2022-11-05T02:15:03.413Z,97015.94
2022-11-05T02:17:53.794Z,97014.13
2022-11-05T02:20:34.309Z,97017.97
2022-11-05T02:23:06.865Z,97022.13
2022-11-05T02:25:57.940Z,97007.78
2022-11-05T02:28:57.644Z,97011.22
2022-11-05T02:31:33.356Z,97004.34
2022-11-05T02:34:11.421Z,97020.28
2022-11-05T02:36:55.508Z,97010.53
2022-11-05T02:39:41.652Z,97014.53
2022-11-05T02:42:35.500Z,97005.28
2022-11-05T02:45:02.042Z,97011.22
2022-11-05T02:47:46.877Z,97005.47
2022-11-05T02:50:27.858Z,97003.78
2022-11-05T02:52:54.429Z,97008.72
2022-11-05T02:55:42.516Z,97001.75
2022-11-05T02:58:09.261Z,96997.44
2022-11-05T03:00:47.905Z,97005.59
2022-11-05T03:03:19.073Z,96997.03
2022-11-05T03:06:17.710Z,96996.50
2022-11-05T03:08:59.817Z,96995.66
2022-11-05T03:11:31.135Z,97001.16
2022-11-05T03:13:57.703Z,97005.69
2022-11-05T03:16:30.572Z,97010.22
2022-11-05T03:19:08.990Z,97007.78
2022-11-05T03:21:47.448Z,96994.53
2022-11-05T03:24:19.979Z,96998.13
2022-11-05T03:27:23.603Z,96993.03
2022-11-05T03:29:53.272Z,97001.34
2022-11-05T03:32:22.525Z,96997.88
2022-11-05T03:34:58.933Z,97002.28
2022-11-05T03:37:28.719Z,97003.50
2022-11-05T03:40:00.354Z,96999.25
2022-11-05T03:42:32.440Z,96987.69
2022-11-05T03:45:02.786Z,96993.72
2022-11-05T03:47:35.185Z,96999.13
2022-11-05T03:50:13.173Z,97008.59
2022-11-05T03:52:48.157Z,97021.69
2022-11-05T03:55:15.465Z,97026.81
2022-11-05T03:57:47.195Z,97027.22
2022-11-05T04:00:14.887Z,97023.47
2022-11-05T04:02:42.051Z,97014.94
2022-11-05T04:05:09.156Z,97021.00
2022-11-05T04:07:54.476Z,97022.66
2022-11-05T04:10:39.661Z,97038.47
2022-11-05T04:13:24.653Z,97046.59
2022-11-05T04:16:11.648Z,97047.44
2022-11-05T04:18:38.357Z,97060.63
2022-11-05T04:21:25.071Z,97044.25
2022-11-05T04:24:10.349Z,97049.88
2022-11-05T04:26:43.592Z,97062.00
2022-11-05T04:29:29.146Z,97069.16
2022-11-05T04:31:56.059Z,97072.44
2022-11-05T04:34:23.001Z,97069.94
2022-11-05T04:36:52.207Z,97070.22
2022-11-05T04:39:19.860Z,97083.31
2022-11-05T04:41:49.823Z,97084.25
2022-11-05T04:44:17.073Z,97080.72
2022-11-05T04:46:43.958Z,97084.53
2022-11-05T04:49:10.607Z,97087.56
2022-11-05T04:51:37.246Z,97082.91
2022-11-05T04:54:04.039Z,97092.78
2022-11-05T04:56:30.703Z,97099.94
2022-11-05T04:58:57.356Z,97105.56
2022-11-05T05:01:25.474Z,97121.41
2022-11-05T05:03:53.916Z,97116.41
2022-11-05T05:06:21.508Z,97116.69
2022-11-05T05:08:49.847Z,97120.94
2022-11-05T05:11:19.287Z,97122.03
2022-11-05T05:13:46.319Z,97122.88
2022-11-05T05:16:21.182Z,97123.53
2022-11-05T05:18:49.208Z,97131.00
2022-11-05T05:21:36.466Z,97126.06
2022-11-05T05:24:03.727Z,97126.38
2022-11-05T05:26:30.460Z,97135.06
2022-11-05T05:28:57.149Z,97144.28
2022-11-05T05:31:24.026Z,97145.28
2022-11-05T05:33:53.580Z,97149.38
2022-11-05T05:36:20.538Z,97151.41
2022-11-05T05:38:47.212Z,97166.28
2022-11-05T05:41:14.457Z,97171.78
2022-11-05T05:43:41.146Z,97173.91
2022-11-05T05:46:10.861Z,97166.53
2022-11-05T05:48:37.571Z,97175.31
2022-11-05T05:51:10.240Z,97173.41
2022-11-05T05:53:37.944Z,97169.28
2022-11-05T05:56:05.152Z,97168.44
2022-11-05T05:58:37.588Z,97163.22
2022-11-05T06:01:07.704Z,97163.47
2022-11-05T06:03:34.821Z,97160.84
2022-11-05T06:06:03.544Z,97154.81
2022-11-05T06:08:30.952Z,97169.66
2022-11-05T06:10:58.120Z,97165.00
2022-11-05T06:13:25.768Z,97174.50
2022-11-05T06:15:52.899Z,97173.41
2022-11-05T06:18:20.029Z,97187.75
2022-11-05T06:20:46.699Z,97189.97
2022-11-05T06:23:13.573Z,97184.22
2022-11-05T06:25:41.484Z,97183.94
2022-11-05T06:28:08.304Z,97187.03
2022-11-05T06:30:34.941Z,97194.34
2022-11-05T06:33:05.363Z,97198.34
2022-11-05T06:35:32.748Z,97196.88
2022-11-05T06:38:03.460Z,97204.19
2022-11-05T06:40:30.093Z,97205.56
2022-11-05T06:42:56.774Z,97203.41
2022-11-05T06:45:23.880Z,97206.97
2022-11-05T06:47:56.047Z,97212.00
2022-11-05T06:50:23.670Z,97219.47
2022-11-05T06:52:57.721Z,97229.84
2022-11-05T06:55:25.393Z,97230.53
2022-11-05T06:57:52.059Z,97233.16
2022-11-05T07:00:19.459Z,97236.88
2022-11-05T07:02:46.507Z,97236.19
2022-11-05T07:05:14.347Z,97235.38
2022-11-05T07:07:42.313Z,97238.69
2022-11-05T07:10:12.715Z,97234.97
2022-11-05T07:12:39.453Z,97236.59
2022-11-05T07:15:06.866Z,97239.75
2022-11-05T07:17:33.563Z,97245.41
2022-11-05T07:20:00.206Z,97245.25
2022-11-05T07:22:26.852Z,97241.47
2022-11-05T07:24:53.456Z,97245.31
2022-11-05T07:27:20.135Z,97248.97
2022-11-05T07:29:46.954Z,97239.09
2022-11-05T07:32:13.557Z,97238.22
2022-11-05T07:34:40.200Z,97240.66
2022-11-05T07:37:06.904Z,97249.72
2022-11-05T07:39:33.547Z,97245.19
2022-11-05T07:42:00.214Z,97251.72
2022-11-05T07:44:32.662Z,97254.06
2022-11-05T07:46:59.314Z,97259.16
2022-11-05T07:49:26.109Z,97248.19
2022-11-05T07:51:53.652Z,97253.19
2022-11-05T07:54:20.363Z,97266.69
2022-11-05T07:56:48.009Z,97260.63
2022-11-05T07:59:14.927Z,97255.88
2022-11-05T08:01:41.766Z,97258.38
2022-11-05T08:04:08.572Z,97257.94
2022-11-05T08:06:35.526Z,97263.19
2022-11-05T08:09:02.328Z,97258.28
2022-11-05T08:11:29.059Z,97258.97
2022-11-05T08:13:55.735Z,97251.91
2022-11-05T08:16:22.348Z,97255.75
2022-11-05T08:18:49.487Z,97256.81
2022-11-05T08:21:16.152Z,97264.38
2022-11-05T08:23:43.026Z,97251.28
2022-11-05T08:26:10.208Z,97255.59
2022-11-05T08:28:37.173Z,97252.03
2022-11-05T08:31:03.928Z,97258.13
2022-11-05T08:33:31.599Z,97251.19
2022-11-05T08:36:02.544Z,97250.69
2022-11-05T08:38:29.187Z,97257.38
2022-11-05T08:40:59.045Z,97259.88
2022-11-05T08:43:26.122Z,97247.84
2022-11-05T08:45:52.868Z,97255.78
2022-11-05T08:48:19.740Z,97249.91
2022-11-05T08:50:48.273Z,97254.50
2022-11-05T08:53:15.827Z,97248.44
2022-11-05T08:55:43.938Z,97246.69
2022-11-05T08:58:12.859Z,97240.03
2022-11-05T09:00:40.103Z,97243.00
2022-11-05T09:03:08.826Z,97242.72
2022-11-05T09:05:38.811Z,97250.34
2022-11-05T09:08:06.585Z,97242.44
2022-11-05T09:10:33.950Z,97257.31
2022-11-05T09:13:00.620Z,97258.03
2022-11-05T09:15:27.543Z,97258.03
2022-11-05T09:17:55.108Z,97264.59
2022-11-05T09:20:22.164Z,97273.50
2022-11-05T09:22:50.004Z,97268.91
2022-11-05T09:25:16.793Z,97280.31
2022-11-05T09:27:43.875Z,97266.97
2022-11-05T09:30:11.655Z,97279.97
2022-11-05T09:32:38.706Z,97284.16
2022-11-05T09:35:06.501Z,97280.41
2022-11-05T09:37:33.263Z,97286.50
2022-11-05T09:39:59.974Z,97284.63
2022-11-05T09:42:32.887Z,97286.34
2022-11-05T09:45:03.748Z,97297.09
2022-11-05T09:47:34.428Z,97289.16
2022-11-05T09:50:05.788Z,97280.22
2022-11-05T09:52:33.547Z,97277.44
2022-11-05T09:55:02.543Z,97269.03
2022-11-05T09:57:36.661Z,97277.31
2022-11-05T10:00:07.244Z,97282.72
2022-11-05T10:02:47.836Z,97276.16
2022-11-05T10:05:15.283Z,97275.47
2022-11-05T10:07:47.605Z,97283.56
2022-11-05T10:10:45.390Z,97279.44
2022-11-05T10:13:28.166Z,97275.00
2022-11-05T10:16:15.537Z,97281.59
2022-11-05T10:18:47.471Z,97295.13
2022-11-05T10:21:32.232Z,97291.47
2022-11-05T10:24:14.259Z,97287.00
2022-11-05T10:26:40.940Z,97284.56
2022-11-05T10:29:10.108Z,97286.53
2022-11-05T10:31:38.459Z,97282.91
2022-11-05T10:34:07.782Z,97286.19
2022-11-05T10:36:37.142Z,97288.00
2022-11-05T10:39:15.071Z,97287.50
2022-11-05T10:42:03.344Z,97289.03
2022-11-05T10:44:52.197Z,97290.16
2022-11-05T10:47:46.147Z,97294.13
2022-11-05T10:50:18.483Z,97297.44
2022-11-05T10:52:59.030Z,97302.53
2022-11-05T10:55:32.782Z,97301.84
2022-11-05T10:58:24.738Z,97305.25
2022-11-05T11:00:51.413Z,97309.88
2022-11-05T11:03:47.104Z,97310.81
2022-11-05T11:06:43.815Z,97306.50
2022-11-05T11:09:21.895Z,97312.44
2022-11-05T11:11:59.416Z,97321.09
2022-11-05T11:14:26.863Z,97316.78
2022-11-05T11:16:57.491Z,97316.47
2022-11-05T11:19:30.026Z,97319.13
2022-11-05T11:22:02.804Z,97318.25
2022-11-05T11:24:33.561Z,97317.06
2022-11-05T11:27:06.643Z,97322.72
2022-11-05T11:29:40.528Z,97320.44
2022-11-05T11:32:15.570Z,97315.44
2022-11-05T11:34:43.361Z,97322.34
2022-11-05T11:37:19.580Z,97326.91
2022-11-05T11:39:54.788Z,97324.13
2022-11-05T11:42:31.496Z,97322.84
2022-11-05T11:45:02.804Z,97322.00
2022-11-05T11:47:30.190Z,97326.63
2022-11-05T11:49:59.399Z,97325.88
2022-11-05T11:52:31.940Z,97330.44
2022-11-05T11:55:13.887Z,97344.59
2022-11-05T11:57:52.200Z,97335.44
2022-11-05T12:00:23.444Z,97333.09
2022-11-05T12:03:16.194Z,97322.88
2022-11-05T12:06:05.157Z,97330.19
2022-11-05T12:08:41.637Z,97323.13
2022-11-05T12:11:21.248Z,97315.09
2022-11-05T12:14:04.577Z,97324.06
2022-11-05T12:16:49.543Z,97327.63
2022-11-05T12:19:49.414Z,97325.47
2022-11-05T12:22:29.020Z,97316.69
2022-11-05T12:25:00.307Z,97309.78
2022-11-05T12:27:48.221Z,97309.88
2022-11-05T12:30:17.560Z,97313.97
2022-11-05T12:32:56.348Z,97316.34
2022-11-05T12:35:49.902Z,97314.56
2022-11-05T12:38:20.451Z,97315.47
2022-11-05T12:40:55.902Z,97316.53
2022-11-05T12:43:45.143Z,97322.72
2022-11-05T12:46:45.971Z,97328.38
2022-11-05T12:49:34.155Z,97339.31
2022-11-05T12:52:19.332Z,97332.53
2022-11-05T12:55:01.109Z,97342.75
2022-11-05T12:57:31.323Z,97346.06
2022-11-05T13:00:17.359Z,97357.28
2022-11-05T13:02:57.861Z,97349.81
2022-11-05T13:05:36.465Z,97365.06
2022-11-05T13:08:12.867Z,97362.09
2022-11-05T13:10:51.953Z,97361.06
2022-11-05T13:13:33.556Z,97371.84
2022-11-05T13:16:06.512Z,97367.41
2022-11-05T13:18:44.267Z,97360.81
2022-11-05T13:21:11.583Z,97377.31
2022-11-05T13:23:45.624Z,97381.63
2022-11-05T13:26:22.549Z,97384.91
2022-11-05T13:28:59.525Z,97390.69
2022-11-05T13:31:32.646Z,97383.91
2022-11-05T13:34:03.116Z,97385.38
2022-11-05T13:37:01.283Z,97395.47
2022-11-05T13:39:50.941Z,97391.53
2022-11-05T13:42:29.390Z,97392.47
2022-11-05T13:45:34.582Z,97396.59
2022-11-05T13:48:37.953Z,97408.25
2022-11-05T13:51:23.042Z,97405.31
2022-11-05T13:54:01.890Z,97396.56
2022-11-05T13:56:58.771Z,97396.94
2022-11-05T13:59:53.083Z,97399.31
2022-11-05T14:02:26.540Z,97408.53
2022-11-05T14:05:01.389Z,97404.66
2022-11-05T14:07:33.396Z,97411.00
2022-11-05T14:10:18.840Z,97406.38
2022-11-05T14:12:52.107Z,97396.94
2022-11-05T14:15:26.143Z,97405.72
2022-11-05T14:17:57.755Z,97405.19
2022-11-05T14:20:32.638Z,97416.41
2022-11-05T14:23:17.749Z,97407.63
2022-11-05T14:25:44.382Z,97414.41
2022-11-05T14:28:34.983Z,97419.47
2022-11-05T14:31:03.167Z,97416.66
2022-11-05T14:33:33.170Z,97421.94
2022-11-05T14:36:21.624Z,97427.69
2022-11-05T14:38:53.593Z,97435.06
2022-11-05T14:41:21.424Z,97437.56
2022-11-05T14:43:56.087Z,97442.78
2022-11-05T14:46:23.032Z,97430.59
2022-11-05T14:48:58.574Z,97440.19
2022-11-05T14:51:39.721Z,97442.91
2022-11-05T14:54:31.223Z,97447.09
2022-11-05T14:57:02.536Z,97454.94
2022-11-05T14:59:29.232Z,97454.75
2022-11-05T15:02:04.131Z,97462.88
2022-11-05T15:04:33.545Z,97453.34
2022-11-05T15:07:02.970Z,97460.13
2022-11-05T15:09:49.171Z,97469.91
2022-11-05T15:12:50.592Z,97480.06
2022-11-05T15:15:30.016Z,97475.59
2022-11-05T15:18:11.063Z,97482.03
2022-11-05T15:20:42.191Z,97482.19
2022-11-05T15:23:13.315Z,97483.75
2022-11-05T15:25:53.112Z,97486.00
2022-11-05T15:28:38.860Z,97487.19
2022-11-05T15:31:22.698Z,97487.06
2022-11-05T15:33:49.476Z,97487.19
2022-11-05T15:36:22.334Z,97490.56
2022-11-05T15:39:15.012Z,97480.91
2022-11-05T15:41:38.845Z,97480.38
2022-11-05T15:44:05.613Z,97474.56
2022-11-05T15:46:32.247Z,97480.34
2022-11-05T15:49:06.595Z,97472.91
2022-11-05T15:51:33.666Z,97467.00
2022-11-05T15:56:57.031Z,97475.75
2022-11-05T15:59:25.835Z,97476.06
2022-11-05T16:02:18.940Z,97479.09
2022-11-05T16:04:48.386Z,97469.16
2022-11-05T16:07:15.886Z,97474.69
2022-11-05T16:09:54.411Z,97493.75
2022-11-05T16:12:21.034Z,97496.91
2022-11-05T16:14:58.183Z,97501.72
2022-11-05T16:17:30.027Z,97501.84
2022-11-05T16:19:56.796Z,97506.44
2022-11-05T16:22:24.556Z,97521.34
2022-11-05T16:24:51.556Z,97531.13
2022-11-05T16:27:21.047Z,97537.53
2022-11-05T16:29:56.260Z,97530.91
2022-11-05T16:32:31.061Z,97537.47
2022-11-05T16:35:05.665Z,97544.91
2022-11-05T16:37:41.689Z,97549.38
2022-11-05T16:40:34.799Z,97558.00
2022-11-05T16:43:17.814Z,97569.06
2022-11-05T16:45:44.432Z,97562.53
2022-11-05T16:48:17.908Z,97568.03
2022-11-05T16:50:47.479Z,97573.72
2022-11-05T16:53:14.493Z,97579.78
2022-11-05T16:55:43.624Z,97589.28
2022-11-05T16:58:25.017Z,97589.97
2022-11-05T17:00:55.350Z,97587.63
2022-11-05T17:03:21.995Z,97589.78
2022-11-05T17:05:48.785Z,97593.13
2022-11-05T17:08:15.729Z,97597.28
2022-11-05T17:10:42.786Z,97596.69
2022-11-05T17:13:14.328Z,97604.22
2022-11-05T17:15:43.810Z,97611.28
2022-11-05T17:18:16.923Z,97612.41
2022-11-05T17:20:51.499Z,97604.38
2022-11-05T17:23:21.764Z,97607.81
2022-11-05T17:25:54.191Z,97606.56
2022-11-05T17:28:21.608Z,97607.66
2022-11-05T17:30:52.345Z,97610.06
2022-11-05T17:33:21.038Z,97621.03
2022-11-05T17:35:47.732Z,97611.97
2022-11-05T17:38:15.001Z,97616.31
2022-11-05T17:40:41.776Z,97622.88
2022-11-05T17:43:09.006Z,97612.66
2022-11-05T17:45:48.514Z,97623.25
2022-11-05T17:48:16.175Z,97627.69
2022-11-05T17:50:44.740Z,97625.44
2022-11-05T17:53:12.594Z,97629.13
2022-11-05T17:55:44.766Z,97636.16
2022-11-05T17:58:12.042Z,97638.44
2022-11-05T18:00:39.746Z,97636.91
2022-11-05T18:03:06.531Z,97642.53
2022-11-05T18:05:34.668Z,97644.31
2022-11-05T18:08:01.620Z,97642.41
2022-11-05T18:10:28.263Z,97646.34
2022-11-05T18:12:54.902Z,97648.50
2022-11-05T18:15:21.557Z,97648.03
2022-11-05T18:17:48.272Z,97648.78
2022-11-05T18:20:19.156Z,97648.53
2022-11-05T18:22:48.653Z,97644.00
2022-11-05T18:25:15.405Z,97664.38
2022-11-05T18:27:42.117Z,97659.53
2022-11-05T18:30:10.500Z,97664.50
2022-11-05T18:32:37.179Z,97669.75
2022-11-05T18:35:04.077Z,97670.22
2022-11-05T18:37:30.758Z,97677.34
2022-11-05T18:39:57.380Z,97669.97
2022-11-05T18:42:25.309Z,97676.63
2022-11-05T18:44:51.993Z,97679.94
2022-11-05T18:47:18.648Z,97676.38
2022-11-05T18:49:45.291Z,97684.78
2022-11-05T18:52:12.096Z,97683.47
2022-11-05T18:54:39.235Z,97680.13
2022-11-05T18:57:05.992Z,97684.13
2022-11-05T18:59:38.781Z,97689.56
2022-11-05T19:02:08.416Z,97697.53
2022-11-05T19:04:36.732Z,97699.22
2022-11-05T19:07:05.409Z,97696.22
2022-11-05T19:09:37.222Z,97700.72
2022-11-05T19:12:05.698Z,97697.63
2022-11-05T19:14:32.439Z,97706.38
2022-11-05T19:17:01.537Z,97706.38
2022-11-05T19:19:29.537Z,97717.22
2022-11-05T19:21:56.689Z,97715.66
2022-11-05T19:24:24.505Z,97724.66
2022-11-05T19:26:51.464Z,97728.34
2022-11-05T19:29:22.568Z,97723.00
2022-11-05T19:31:49.838Z,97725.28
2022-11-05T19:34:16.874Z,97726.41
2022-11-05T19:36:43.592Z,97731.81
2022-11-05T19:39:15.662Z,97735.06
2022-11-05T19:41:43.090Z,97738.41
2022-11-05T19:44:10.497Z,97738.41
2022-11-05T19:46:37.137Z,97744.94
2022-11-05T19:49:03.776Z,97738.78
2022-11-05T19:51:31.894Z,97746.19
2022-11-05T19:54:00.761Z,97743.22
2022-11-05T19:56:31.018Z,97750.34
2022-11-05T19:58:59.663Z,97742.63
2022-11-05T20:01:34.765Z,97739.31
2022-11-05T20:04:05.777Z,97746.41
2022-11-05T20:06:37.892Z,97742.84
2022-11-05T20:09:21.189Z,97749.97
2022-11-05T20:11:50.063Z,97745.59
2022-11-05T20:14:17.065Z,97747.88
2022-11-05T20:16:45.639Z,97751.16
2022-11-05T20:19:19.672Z,97744.41
2022-11-05T20:21:47.088Z,97743.66
2022-11-05T20:24:22.325Z,97748.06
2022-11-05T20:26:51.356Z,97757.59
2022-11-05T20:29:18.050Z,97757.47
2022-11-05T20:31:44.679Z,97758.53
2022-11-05T20:34:11.414Z,97762.81
2022-11-05T20:36:38.797Z,97761.41
2022-11-05T20:39:05.821Z,97761.41
2022-11-05T20:41:33.235Z,97766.03
2022-11-05T20:43:59.970Z,97764.97
2022-11-05T20:46:26.818Z,97768.44
2022-11-05T20:48:54.417Z,97767.84
2022-11-05T20:51:24.199Z,97767.25
2022-11-05T20:53:55.661Z,97767.56
2022-11-05T20:56:27.736Z,97769.59
2022-11-05T20:58:57.888Z,97764.56
2022-11-05T21:01:25.722Z,97771.06
2022-11-05T21:03:52.535Z,97766.81
2022-11-05T21:06:19.175Z,97772.13
2022-11-05T21:08:50.077Z,97765.59
2022-11-05T21:11:18.084Z,97776.97
2022-11-05T21:13:46.137Z,97772.19
2022-11-05T21:16:18.065Z,97781.41
2022-11-05T21:18:46.111Z,97774.97
2022-11-05T21:21:18.435Z,97773.88
2022-11-05T21:23:45.740Z,97772.19
2022-11-05T21:26:14.527Z,97784.41
2022-11-05T21:28:42.049Z,97783.78
2022-11-05T21:31:09.498Z,97786.28
2022-11-05T21:33:36.639Z,97783.47
2022-11-05T21:36:11.657Z,97786.06
2022-11-05T21:38:38.949Z,97790.38
2022-11-05T21:41:06.766Z,97785.88
2022-11-05T21:43:34.056Z,97784.19
2022-11-05T21:46:02.715Z,97783.59
2022-11-05T21:48:30.284Z,97787.34
2022-11-05T21:51:15.682Z,97789.88
2022-11-05T21:54:00.914Z,97775.44
2022-11-05T21:56:47.246Z,97775.69
2022-11-05T21:59:35.522Z,97782.16
2022-11-05T22:02:03.039Z,97772.16
2022-11-05T22:04:35.651Z,97774.66
2022-11-05T22:07:02.691Z,97778.44
2022-11-05T22:09:29.457Z,97776.44
2022-11-05T22:11:56.128Z,97777.66
2022-11-05T22:14:23.295Z,97777.38
2022-11-05T22:16:50.267Z,97771.13
2022-11-05T22:19:17.392Z,97772.03
2022-11-05T22:21:44.028Z,97768.69
2022-11-05T22:24:10.667Z,97769.63
2022-11-05T22:26:38.754Z,97771.72
2022-11-05T22:29:06.459Z,97771.94
2022-11-05T22:31:36.156Z,97778.84
2022-11-05T22:34:04.375Z,97779.50
2022-11-05T22:36:32.302Z,97778.03
2022-11-05T22:38:59.053Z,97775.31
2022-11-05T22:41:25.725Z,97774.78
2022-11-05T22:43:52.363Z,97766.53
2022-11-05T22:46:22.303Z,97769.56
2022-11-05T22:48:49.986Z,97773.69
2022-11-05T22:51:28.586Z,97778.28
2022-11-05T22:53:55.614Z,97776.94
2022-11-05T22:56:26.542Z,97769.28
2022-11-05T22:58:53.522Z,97785.19
2022-11-05T23:01:21.772Z,97776.09
2022-11-05T23:03:50.461Z,97770.47
2022-11-05T23:06:40.620Z,97772.03
2022-11-05T23:09:31.924Z,97770.47
2022-11-05T23:11:59.289Z,97768.81
2022-11-05T23:14:26.784Z,97767.88
2022-11-05T23:17:11.952Z,97768.69
2022-11-05T23:19:57.188Z,97768.69
2022-11-05T23:22:45.080Z,97773.72
2022-11-05T23:25:14.568Z,97771.81
2022-11-05T23:27:41.552Z,97775.38
2022-11-05T23:30:12.509Z,97773.72
2022-11-05T23:32:39.399Z,97771.94
2022-11-05T23:35:06.356Z,97776.31
2022-11-05T23:37:52.372Z,97772.16
2022-11-05T23:40:27.990Z,97779.97
2022-11-05T23:43:13.443Z,97776.41
2022-11-05T23:46:02.187Z,97771.63
2022-11-05T23:48:37.040Z,97778.72
2022-11-05T23:51:07.446Z,97776.31
2022-11-05T23:53:37.809Z,97783.09
2022-11-05T23:56:10.540Z,97785.41
2022-11-05T23:58:39.232Z,97778.31
